Terminal Aerodrome Forecast
Issued by NWS Burlington, VT

Home | Current Version | Previous Version | Text Only | Print | Product List | Glossary On
Versions: 1 2 3 4 5 6 7 8 9 10 11 12 13 14 15 16 17
000
FTUS41 KBTV 260522
TAFBTV
TAF
KBTV 260522Z 2606/2706 VRB06KT P6SM OVC040
     FM260900 00000KT P6SM FEW040 OVC150
     FM261800 VRB03KT 1 1/2SM -SN BR OVC015
     FM270000 35007KT 1 1/2SM -SN BR OVC008
     FM270500 34005KT P6SM OVC008=

USA.gov is the U.S. government's official web portal to all federal, state and local government web resources and services.